createdAt,value
2022-11-04T00:01:23.160Z,59.15
2022-11-04T00:03:49.491Z,58.98
2022-11-04T00:06:15.810Z,58.89
2022-11-04T00:08:42.152Z,58.92
2022-11-04T00:11:08.524Z,58.61
2022-11-04T00:13:34.864Z,58.67
2022-11-04T00:16:01.225Z,59.51
2022-11-04T00:18:27.632Z,59.54
2022-11-04T00:20:53.940Z,59.65
2022-11-04T00:23:20.295Z,59.41
2022-11-04T00:25:46.623Z,59.90
2022-11-04T00:28:12.946Z,59.93
2022-11-04T00:30:39.288Z,60.40
2022-11-04T00:33:05.627Z,60.51
2022-11-04T00:35:31.971Z,61.10
2022-11-04T00:37:58.288Z,60.39
2022-11-04T00:40:24.622Z,60.21
2022-11-04T00:42:50.962Z,60.42
2022-11-04T00:45:17.285Z,60.57
2022-11-04T00:47:43.607Z,60.95
2022-11-04T00:50:09.984Z,60.95
2022-11-04T00:52:36.319Z,61.17
2022-11-04T00:55:02.640Z,61.04
2022-11-04T00:57:29.004Z,61.06
2022-11-04T00:59:55.344Z,61.37
2022-11-04T01:02:21.774Z,61.40
2022-11-04T01:04:48.063Z,61.56
2022-11-04T01:07:14.375Z,61.75
2022-11-04T01:09:40.728Z,62.33
2022-11-04T01:12:07.047Z,62.54
2022-11-04T01:14:33.392Z,62.50
2022-11-04T01:16:59.736Z,62.25
2022-11-04T01:19:26.057Z,62.06
2022-11-04T01:21:52.419Z,62.49
2022-11-04T01:24:18.750Z,62.61
2022-11-04T01:26:45.069Z,62.98
2022-11-04T01:29:11.394Z,63.02
2022-11-04T01:31:37.717Z,63.80
2022-11-04T01:34:04.041Z,63.81
2022-11-04T01:36:30.377Z,63.97
2022-11-04T01:38:56.727Z,63.98
2022-11-04T01:41:23.066Z,63.97
2022-11-04T01:43:49.380Z,63.97
2022-11-04T01:46:15.713Z,64.08
2022-11-04T01:48:42.064Z,64.14
2022-11-04T01:51:08.381Z,64.14
2022-11-04T01:53:34.705Z,63.91
2022-11-04T01:56:01.054Z,64.46
2022-11-04T01:58:27.371Z,64.59
2022-11-04T02:00:53.779Z,64.65
2022-11-04T02:03:20.069Z,64.67
2022-11-04T02:05:46.391Z,64.67
2022-11-04T02:08:12.745Z,64.78
2022-11-04T02:10:39.111Z,64.91
2022-11-04T02:13:05.734Z,65.00
2022-11-04T02:15:31.777Z,65.08
2022-11-04T02:17:58.129Z,65.41
2022-11-04T02:20:24.452Z,65.30
2022-11-04T02:22:50.797Z,65.49
2022-11-04T02:25:17.138Z,65.27
2022-11-04T02:27:43.505Z,65.09
2022-11-04T02:30:09.831Z,65.16
2022-11-04T02:32:36.145Z,65.34
2022-11-04T02:35:02.519Z,65.68
2022-11-04T02:37:28.839Z,65.98
2022-11-04T02:39:55.162Z,66.08
2022-11-04T02:42:21.504Z,65.83
2022-11-04T02:44:47.828Z,66.12
2022-11-04T02:47:14.149Z,65.57
2022-11-04T02:49:40.491Z,65.87
2022-11-04T02:52:06.839Z,66.65
2022-11-04T02:54:33.165Z,67.15
2022-11-04T02:56:59.549Z,66.95
2022-11-04T02:59:25.895Z,67.26
2022-11-04T03:01:52.376Z,67.26
2022-11-04T03:04:18.550Z,67.09
2022-11-04T03:06:44.870Z,67.49
2022-11-04T03:09:11.221Z,67.52
2022-11-04T03:11:37.539Z,68.19
2022-11-04T03:14:03.865Z,68.40
2022-11-04T03:16:30.236Z,68.69
2022-11-04T03:18:56.531Z,68.78
2022-11-04T03:21:22.857Z,69.39
2022-11-04T03:23:49.214Z,69.64
2022-11-04T03:26:15.556Z,70.76
2022-11-04T03:28:41.872Z,70.05
2022-11-04T03:31:08.243Z,69.85
2022-11-04T03:33:34.589Z,70.50
2022-11-04T03:36:00.903Z,70.42
2022-11-04T03:38:27.268Z,71.33
2022-11-04T03:40:53.617Z,70.72
2022-11-04T03:43:19.944Z,70.00
2022-11-04T03:45:46.306Z,70.30
2022-11-04T03:48:12.628Z,70.54
2022-11-04T03:50:38.981Z,70.84
2022-11-04T03:53:05.331Z,71.61
2022-11-04T03:55:31.652Z,71.02
2022-11-04T03:57:57.973Z,71.32
2022-11-04T04:00:24.320Z,72.08
2022-11-04T04:02:50.645Z,71.20
2022-11-04T04:05:18.875Z,71.37
2022-11-04T04:07:43.314Z,71.62
2022-11-04T04:10:09.628Z,71.91
2022-11-04T04:12:35.953Z,72.83
2022-11-04T04:15:02.305Z,72.74
2022-11-04T04:17:28.623Z,72.05
2022-11-04T04:19:54.984Z,72.05
2022-11-04T04:22:21.332Z,72.07
2022-11-04T04:24:47.650Z,72.04
2022-11-04T04:27:14.021Z,72.38
2022-11-04T04:29:40.340Z,71.96
2022-11-04T04:32:06.684Z,71.68
2022-11-04T04:34:33.047Z,71.56
2022-11-04T04:36:59.372Z,71.34
2022-11-04T04:39:25.709Z,71.96
2022-11-04T04:41:52.079Z,72.50
2022-11-04T04:44:18.414Z,72.58
2022-11-04T04:46:44.739Z,72.86
2022-11-04T04:49:11.065Z,73.54
2022-11-04T04:51:37.456Z,73.36
2022-11-04T04:54:03.779Z,74.03
2022-11-04T04:56:30.101Z,73.54
2022-11-04T04:58:56.425Z,73.17
2022-11-04T05:01:22.886Z,73.46
2022-11-04T05:03:49.080Z,73.63
2022-11-04T05:06:15.465Z,73.99
2022-11-04T05:08:41.782Z,73.88
2022-11-04T05:11:08.132Z,73.75
2022-11-04T05:13:34.480Z,73.74
2022-11-04T05:16:00.816Z,73.85
2022-11-04T05:18:27.159Z,73.60
2022-11-04T05:20:53.500Z,73.26
2022-11-04T05:23:20.185Z,72.95
2022-11-04T05:25:46.510Z,72.68
2022-11-04T05:28:12.857Z,72.44
2022-11-04T05:30:39.217Z,72.06
2022-11-04T05:33:05.655Z,71.75
2022-11-04T05:35:31.903Z,71.36
2022-11-04T05:37:58.257Z,70.98
2022-11-04T05:40:24.584Z,70.13
2022-11-04T05:42:50.928Z,68.84
2022-11-04T05:45:17.271Z,68.56
2022-11-04T05:47:43.590Z,67.27
2022-11-04T05:50:09.944Z,66.50
2022-11-04T05:52:36.260Z,66.00
2022-11-04T05:55:02.605Z,65.77
2022-11-04T05:57:28.927Z,64.98
2022-11-04T05:59:55.251Z,64.46
2022-11-04T06:02:21.842Z,64.02
2022-11-04T06:04:47.966Z,64.18
2022-11-04T06:07:14.281Z,64.19
2022-11-04T06:09:40.657Z,63.31
2022-11-04T06:12:06.998Z,63.08
2022-11-04T06:14:33.811Z,62.24
2022-11-04T06:17:00.244Z,62.22
2022-11-04T06:19:26.492Z,62.53
2022-11-04T06:21:52.815Z,62.70
2022-11-04T06:24:19.151Z,63.09
2022-11-04T06:26:45.481Z,62.64
2022-11-04T06:29:11.827Z,62.15
2022-11-04T06:31:38.144Z,62.19
2022-11-04T06:34:04.471Z,61.22
2022-11-04T06:36:30.829Z,60.47
2022-11-04T06:39:03.033Z,60.82
2022-11-04T06:41:23.528Z,60.13
2022-11-04T06:43:49.890Z,59.45
2022-11-04T06:46:16.231Z,57.81
2022-11-04T06:48:42.574Z,58.38
2022-11-04T06:51:08.889Z,57.73
2022-11-04T06:53:35.215Z,56.93
2022-11-04T06:56:01.587Z,57.18
2022-11-04T06:58:27.900Z,57.15
2022-11-04T07:00:54.282Z,57.61
2022-11-04T07:03:20.602Z,57.14
2022-11-04T07:05:46.948Z,56.85
2022-11-04T07:08:13.282Z,56.98
2022-11-04T07:10:39.628Z,57.72
2022-11-04T07:13:05.965Z,58.52
2022-11-04T07:15:32.394Z,56.83
2022-11-04T07:17:58.694Z,55.66
2022-11-04T07:20:25.026Z,55.76
2022-11-04T07:22:51.398Z,54.45
2022-11-04T07:25:17.738Z,54.30
2022-11-04T07:27:44.067Z,53.00
2022-11-04T07:30:10.380Z,52.32
2022-11-04T07:32:36.719Z,51.98
2022-11-04T07:35:03.051Z,52.42
2022-11-04T07:37:29.382Z,52.56
2022-11-04T07:39:55.724Z,52.21
2022-11-04T07:42:22.094Z,52.15
2022-11-04T07:44:48.412Z,51.01
2022-11-04T07:47:14.735Z,51.79
2022-11-04T07:49:41.157Z,50.29
2022-11-04T07:52:07.439Z,49.31
2022-11-04T07:54:33.761Z,49.11
2022-11-04T07:57:00.109Z,48.99
2022-11-04T07:59:26.425Z,49.11
2022-11-04T08:01:52.904Z,47.51
2022-11-04T08:04:19.125Z,46.73
2022-11-04T08:06:45.472Z,47.15
2022-11-04T08:09:12.037Z,48.26
2022-11-04T08:11:38.217Z,47.48
2022-11-04T08:14:04.535Z,47.50
2022-11-04T08:16:34.290Z,47.03
2022-11-04T08:18:57.246Z,47.62
2022-11-04T08:21:23.656Z,46.86
2022-11-04T08:23:50.035Z,46.98
2022-11-04T08:26:16.389Z,45.86
2022-11-04T08:28:42.747Z,45.46
2022-11-04T08:31:09.110Z,45.41
2022-11-04T08:33:35.430Z,46.12
2022-11-04T08:36:01.761Z,45.90
2022-11-04T08:38:28.084Z,45.75
2022-11-04T08:40:59.453Z,45.93
2022-11-04T08:43:20.769Z,44.61
2022-11-04T08:45:47.104Z,44.81
2022-11-04T08:48:13.426Z,44.65
2022-11-04T08:50:39.770Z,43.99
2022-11-04T08:53:06.324Z,45.01
2022-11-04T08:55:32.463Z,44.14
2022-11-04T08:57:58.803Z,44.39
2022-11-04T09:00:25.124Z,44.15
2022-11-04T09:02:51.496Z,42.55
2022-11-04T09:05:17.973Z,43.08
2022-11-04T09:07:44.288Z,43.54
2022-11-04T09:10:10.656Z,42.96
2022-11-04T09:12:37.016Z,42.06
2022-11-04T09:15:03.382Z,41.93
2022-11-04T09:17:29.726Z,41.98
2022-11-04T09:19:56.073Z,41.88
2022-11-04T09:22:22.415Z,40.83
2022-11-04T09:24:48.743Z,40.55
2022-11-04T09:27:15.064Z,40.19
2022-11-04T09:29:41.451Z,40.59
2022-11-04T09:32:07.793Z,40.97
2022-11-04T09:34:34.162Z,41.13
2022-11-04T09:37:00.533Z,40.22
2022-11-04T09:39:26.908Z,40.42
2022-11-04T09:41:53.287Z,40.82
2022-11-04T09:44:19.608Z,41.15
2022-11-04T09:46:45.964Z,41.38
2022-11-04T09:49:12.302Z,40.09
2022-11-04T09:51:55.659Z,39.78
2022-11-04T09:54:05.003Z,39.65
2022-11-04T09:56:31.341Z,40.09
2022-11-04T09:58:57.719Z,39.88
2022-11-04T10:01:24.117Z,39.59
2022-11-04T10:03:50.402Z,38.39
2022-11-04T10:06:16.759Z,38.87
2022-11-04T10:08:43.173Z,38.67
2022-11-04T10:11:09.491Z,39.45
2022-11-04T10:13:35.835Z,39.39
2022-11-04T10:16:02.189Z,38.65
2022-11-04T10:18:28.514Z,38.61
2022-11-04T10:20:54.836Z,38.71
2022-11-04T10:23:21.237Z,38.10
2022-11-04T10:25:47.556Z,38.08
2022-11-04T10:28:13.918Z,37.16
2022-11-04T10:30:40.264Z,36.34
2022-11-04T10:33:06.931Z,36.54
2022-11-04T10:35:32.975Z,37.72
2022-11-04T10:37:59.438Z,37.05
2022-11-04T10:40:25.772Z,36.65
2022-11-04T10:42:52.120Z,36.14
2022-11-04T10:45:18.447Z,35.83
2022-11-04T10:47:44.782Z,36.40
2022-11-04T10:52:37.443Z,35.88
2022-11-04T10:55:03.813Z,35.80
2022-11-04T10:57:30.129Z,35.30
2022-11-04T10:59:56.453Z,35.22
2022-11-04T11:02:22.861Z,35.12
2022-11-04T11:04:49.136Z,35.64
2022-11-04T11:07:15.473Z,35.22
2022-11-04T11:09:41.796Z,35.09
2022-11-04T11:12:36.263Z,35.13
2022-11-04T11:14:34.462Z,34.90
2022-11-04T11:17:00.824Z,34.48
2022-11-04T11:19:27.179Z,35.11
2022-11-04T11:21:53.504Z,34.42
2022-11-04T11:24:19.881Z,33.63
2022-11-04T11:26:46.207Z,34.01
2022-11-04T11:29:12.522Z,34.34
2022-11-04T11:31:38.879Z,34.58
2022-11-04T11:34:05.254Z,34.32
2022-11-04T11:36:31.579Z,34.24
2022-11-04T11:38:57.899Z,34.79
2022-11-04T11:41:25.499Z,34.83
2022-11-04T11:43:50.605Z,34.65
2022-11-04T11:46:16.935Z,35.33
2022-11-04T11:48:43.299Z,36.19
2022-11-04T11:51:09.664Z,36.35
2022-11-04T11:53:36.002Z,36.78
2022-11-04T11:56:02.392Z,36.98
2022-11-04T12:01:03.207Z,37.27
2022-11-04T12:03:22.463Z,37.15
2022-11-04T12:10:55.874Z,36.81
2022-11-04T12:13:07.152Z,36.74
2022-11-04T12:15:33.157Z,36.93
2022-11-04T12:17:59.477Z,37.17
2022-11-04T12:20:25.834Z,37.61
2022-11-04T12:22:52.192Z,37.95
2022-11-04T12:25:18.522Z,38.45
2022-11-04T12:27:44.893Z,38.55
2022-11-04T12:30:11.233Z,38.30
2022-11-04T12:32:37.556Z,38.45
2022-11-04T12:35:03.948Z,38.61
2022-11-04T12:37:30.273Z,38.26
2022-11-04T12:39:56.590Z,38.42
2022-11-04T12:42:26.700Z,38.31
2022-11-04T12:44:49.245Z,38.44
2022-11-04T12:47:15.616Z,38.60
2022-11-04T12:49:41.952Z,38.83
2022-11-04T12:52:08.301Z,39.10
2022-11-04T12:54:34.693Z,39.48
2022-11-04T12:57:01.023Z,39.58
2022-11-04T12:59:27.345Z,38.74
2022-11-04T13:01:53.778Z,38.82
2022-11-04T13:04:20.033Z,39.63
2022-11-04T13:06:46.400Z,40.41
2022-11-04T13:09:12.740Z,40.83
2022-11-04T13:11:39.097Z,40.89
2022-11-04T13:14:05.475Z,41.24
2022-11-04T13:16:31.864Z,41.50
2022-11-04T13:18:58.200Z,41.58
2022-11-04T13:21:24.583Z,41.70
2022-11-04T13:23:50.940Z,41.71
2022-11-04T13:26:17.237Z,41.69
2022-11-04T13:28:43.630Z,41.80
2022-11-04T13:31:09.971Z,41.76
2022-11-04T13:33:36.314Z,41.70
2022-11-04T13:36:02.671Z,41.72
2022-11-04T13:38:28.977Z,41.86
2022-11-04T13:40:55.302Z,41.83
2022-11-04T13:43:22.708Z,41.96
2022-11-04T13:45:49.094Z,42.04
2022-11-04T13:48:15.411Z,42.40
2022-11-04T13:50:41.756Z,42.63
2022-11-04T13:53:08.308Z,42.96
2022-11-04T13:55:34.430Z,43.24
2022-11-04T13:58:00.768Z,43.29
2022-11-04T14:00:27.128Z,43.53
2022-11-04T14:02:53.505Z,43.71
2022-11-04T14:05:19.816Z,43.85
2022-11-04T14:07:46.137Z,44.01
2022-11-04T14:10:12.486Z,43.86
2022-11-04T14:12:38.897Z,43.95
2022-11-04T14:15:05.211Z,44.04
2022-11-04T14:17:31.533Z,44.42
2022-11-04T14:19:57.910Z,44.64
2022-11-04T14:22:24.190Z,44.72
2022-11-04T14:24:50.560Z,44.65
2022-11-04T14:27:16.910Z,44.80
2022-11-04T14:29:43.229Z,45.03
2022-11-04T14:32:09.543Z,45.25
2022-11-04T14:34:35.906Z,45.42
2022-11-04T14:37:02.246Z,45.76
2022-11-04T14:39:28.562Z,45.89
2022-11-04T14:41:54.913Z,45.99
2022-11-04T14:44:21.234Z,46.01
2022-11-04T14:46:47.557Z,46.38
2022-11-04T14:49:13.899Z,46.45
2022-11-04T14:51:40.228Z,46.45
2022-11-04T14:54:06.562Z,46.55
2022-11-04T14:56:32.947Z,46.98
2022-11-04T14:58:59.273Z,47.43
2022-11-04T15:01:28.622Z,47.60
2022-11-04T15:04:11.382Z,48.26
2022-11-04T15:06:18.281Z,48.35
2022-11-04T15:08:44.640Z,48.69
2022-11-04T15:11:15.719Z,48.67
2022-11-04T15:13:37.280Z,48.79
2022-11-04T15:16:03.611Z,49.68
2022-11-04T15:18:32.449Z,50.26
2022-11-04T15:20:58.739Z,50.34
2022-11-04T15:23:25.093Z,50.71
2022-11-04T15:25:51.475Z,51.31
2022-11-04T15:28:17.816Z,50.88
2022-11-04T15:30:44.133Z,51.37
2022-11-04T15:33:10.916Z,51.92
2022-11-04T15:35:36.810Z,52.30
2022-11-04T15:38:03.141Z,52.86
2022-11-04T15:40:29.458Z,53.23
2022-11-04T15:42:55.783Z,53.82
2022-11-04T15:45:22.130Z,53.73
2022-11-04T15:47:48.511Z,53.88
2022-11-04T15:50:14.827Z,54.14
2022-11-04T15:52:41.182Z,54.45
2022-11-04T15:55:07.516Z,54.72
2022-11-04T15:57:33.847Z,54.75
2022-11-04T16:00:00.193Z,55.21
2022-11-04T16:02:26.567Z,54.88
2022-11-04T16:04:52.914Z,55.17
2022-11-04T16:07:19.237Z,55.20
2022-11-04T16:09:45.581Z,55.41
2022-11-04T16:12:11.943Z,55.94
2022-11-04T16:14:38.283Z,56.31
2022-11-04T16:17:04.613Z,56.63
2022-11-04T16:19:30.951Z,56.29
2022-11-04T16:21:57.284Z,56.56
2022-11-04T16:24:23.636Z,56.37
2022-11-04T16:26:49.979Z,56.49
2022-11-04T16:29:16.317Z,56.97
2022-11-04T16:31:42.664Z,56.71
2022-11-04T16:34:09.007Z,57.25
2022-11-04T16:36:36.081Z,57.21
2022-11-04T16:39:01.686Z,57.14
2022-11-04T16:41:28.035Z,57.81
2022-11-04T16:43:54.397Z,58.09
2022-11-04T16:46:20.722Z,58.06
2022-11-04T16:48:47.073Z,58.23
2022-11-04T16:51:13.422Z,58.02
2022-11-04T16:53:39.764Z,57.77
2022-11-04T16:56:06.098Z,57.43
2022-11-04T16:58:32.453Z,57.64
2022-11-04T17:01:04.109Z,57.93
2022-11-04T17:03:25.161Z,58.22
2022-11-04T17:05:51.544Z,58.14
2022-11-04T17:08:17.874Z,58.35
2022-11-04T17:10:44.222Z,58.80
2022-11-04T17:13:10.726Z,58.98
2022-11-04T17:15:36.908Z,59.43
2022-11-04T17:18:03.319Z,59.11
2022-11-04T17:20:29.679Z,59.00
2022-11-04T17:22:56.161Z,59.72
2022-11-04T17:25:22.497Z,59.06
2022-11-04T17:27:48.812Z,59.51
2022-11-04T17:30:15.651Z,59.83
2022-11-04T17:32:41.966Z,60.40
2022-11-04T17:35:08.313Z,60.57
2022-11-04T17:37:34.699Z,60.54
2022-11-04T17:40:01.020Z,60.58
2022-11-04T17:42:27.428Z,60.85
2022-11-04T17:44:53.767Z,61.13
2022-11-04T17:47:20.104Z,60.71
2022-11-04T17:49:46.444Z,61.53
2022-11-04T17:52:12.778Z,61.37
2022-11-04T17:54:39.131Z,61.40
2022-11-04T17:57:05.471Z,60.99
2022-11-04T17:59:36.481Z,61.06
2022-11-04T18:01:58.302Z,61.22
2022-11-04T18:04:24.501Z,61.42
2022-11-04T18:06:50.823Z,61.74
2022-11-04T18:09:17.158Z,61.38
2022-11-04T18:11:43.477Z,61.83
2022-11-04T18:14:15.337Z,61.91
2022-11-04T18:16:36.175Z,61.59
2022-11-04T18:19:02.534Z,61.37
2022-11-04T18:21:28.910Z,61.75
2022-11-04T18:23:55.233Z,61.86
2022-11-04T18:26:21.556Z,61.61
2022-11-04T18:28:47.913Z,61.69
2022-11-04T18:31:14.238Z,61.32
2022-11-04T18:33:40.592Z,61.42
2022-11-04T18:36:06.979Z,61.73
2022-11-04T18:38:33.331Z,61.82
2022-11-04T18:40:59.676Z,61.41
2022-11-04T18:43:26.087Z,61.41
2022-11-04T18:45:52.422Z,61.46
2022-11-04T18:48:19.156Z,61.63
2022-11-04T18:50:45.501Z,61.88
2022-11-04T18:53:12.087Z,62.15
2022-11-04T18:55:38.267Z,61.89
2022-11-04T18:58:04.592Z,61.71
2022-11-04T19:00:30.925Z,62.04
2022-11-04T19:02:57.268Z,62.21
2022-11-04T19:05:23.581Z,62.19
2022-11-04T19:07:49.977Z,62.45
2022-11-04T19:10:16.314Z,62.58
2022-11-04T19:12:42.643Z,62.90
2022-11-04T19:15:08.999Z,62.55
2022-11-04T19:17:35.380Z,62.62
2022-11-04T19:20:05.448Z,62.81
2022-11-04T19:22:28.040Z,62.80
2022-11-04T19:24:54.387Z,62.76
2022-11-04T19:27:20.730Z,62.77
2022-11-04T19:29:47.081Z,62.81
2022-11-04T19:32:14.473Z,62.61
2022-11-04T19:34:39.757Z,62.52
2022-11-04T19:37:06.170Z,62.27
2022-11-04T19:39:32.515Z,61.79
2022-11-04T19:41:58.856Z,61.52
2022-11-04T19:44:25.182Z,61.65
2022-11-04T19:46:51.545Z,61.85
2022-11-04T19:49:17.914Z,62.00
2022-11-04T19:51:44.241Z,62.72
2022-11-04T19:54:10.600Z,62.97
2022-11-04T19:56:36.941Z,62.91
2022-11-04T19:59:06.197Z,62.41
2022-11-04T20:01:29.746Z,62.32
2022-11-04T20:03:55.957Z,62.51
2022-11-04T20:06:22.295Z,62.35
2022-11-04T20:08:48.645Z,62.32
2022-11-04T20:11:14.986Z,62.26
2022-11-04T20:13:41.367Z,62.08
2022-11-04T20:16:07.721Z,62.16
2022-11-04T20:18:34.047Z,62.05
2022-11-04T20:21:00.375Z,61.83
2022-11-04T20:23:26.718Z,61.91
2022-11-04T20:25:53.063Z,61.97
2022-11-04T20:28:19.439Z,62.16
2022-11-04T20:30:45.731Z,62.06
2022-11-04T20:33:12.091Z,61.78
2022-11-04T20:35:38.438Z,61.64
2022-11-04T20:38:04.774Z,61.67
2022-11-04T20:40:31.183Z,61.80
2022-11-04T20:42:57.457Z,61.96
2022-11-04T20:45:23.846Z,62.19
2022-11-04T20:47:50.229Z,62.58
2022-11-04T20:50:16.577Z,62.62
2022-11-04T20:52:42.925Z,62.55
2022-11-04T20:55:09.333Z,62.90
2022-11-04T20:57:35.649Z,63.49
2022-11-04T21:00:01.976Z,63.64
2022-11-04T21:02:28.416Z,64.04
2022-11-04T21:04:54.660Z,64.12
2022-11-04T21:07:21.162Z,63.78
2022-11-04T21:09:47.508Z,63.64
2022-11-04T21:12:13.844Z,63.61
2022-11-04T21:14:40.192Z,63.59
2022-11-04T21:17:06.557Z,63.99
2022-11-04T21:19:32.958Z,64.39
2022-11-04T21:21:59.337Z,64.71
2022-11-04T21:24:25.704Z,64.33
2022-11-04T21:26:52.101Z,64.65
2022-11-04T21:29:18.428Z,64.76
2022-11-04T21:31:44.778Z,64.44
2022-11-04T21:34:11.130Z,64.34
2022-11-04T21:36:37.448Z,64.21
2022-11-04T21:39:03.777Z,64.36
2022-11-04T21:41:30.135Z,64.66
2022-11-04T21:43:56.482Z,64.37
2022-11-04T21:46:22.829Z,64.13
2022-11-04T21:48:49.203Z,64.09
2022-11-04T21:51:15.517Z,63.84
2022-11-04T21:53:41.844Z,63.91
2022-11-04T21:56:08.162Z,63.73
2022-11-04T21:58:34.510Z,64.19
2022-11-04T22:01:00.862Z,64.18
2022-11-04T22:03:27.177Z,63.98
2022-11-04T22:05:53.658Z,64.18
2022-11-04T22:08:19.860Z,64.64
2022-11-04T22:10:46.294Z,64.77
2022-11-04T22:13:12.961Z,64.40
2022-11-04T22:15:38.992Z,64.40
2022-11-04T22:18:05.316Z,64.49
2022-11-04T22:20:31.663Z,64.48
2022-11-04T22:22:57.995Z,64.53
2022-11-04T22:25:24.320Z,64.93
2022-11-04T22:27:50.708Z,65.22
2022-11-04T22:30:17.071Z,65.41
2022-11-04T22:32:43.390Z,65.60
2022-11-04T22:35:09.777Z,65.73
2022-11-04T22:37:36.109Z,65.63
2022-11-04T22:40:02.433Z,65.48
2022-11-04T22:42:28.796Z,65.90
2022-11-04T22:44:55.132Z,66.03
2022-11-04T22:47:21.455Z,66.08
2022-11-04T22:49:47.798Z,66.04
2022-11-04T22:52:14.140Z,65.94
2022-11-04T22:54:40.478Z,65.72
2022-11-04T22:57:06.820Z,65.70
2022-11-04T22:59:33.164Z,66.01
2022-11-04T23:01:59.577Z,66.07
2022-11-04T23:04:25.819Z,66.93
2022-11-04T23:06:52.211Z,66.69
2022-11-04T23:09:18.503Z,66.50
2022-11-04T23:11:44.899Z,66.50
2022-11-04T23:14:15.651Z,66.34
2022-11-04T23:16:37.528Z,66.25
2022-11-04T23:19:03.931Z,66.04
2022-11-04T23:21:30.274Z,66.20
2022-11-04T23:23:56.656Z,66.16
2022-11-04T23:26:27.565Z,66.11
2022-11-04T23:28:49.293Z,65.89
2022-11-04T23:31:15.751Z,65.86
2022-11-04T23:33:41.949Z,65.93
2022-11-04T23:36:08.296Z,66.10
2022-11-04T23:38:34.619Z,66.30
2022-11-04T23:41:00.983Z,66.65
2022-11-04T23:43:27.301Z,66.56
2022-11-04T23:45:54.661Z,66.62
2022-11-04T23:48:20.992Z,66.51
2022-11-04T23:50:47.313Z,66.82
2022-11-04T23:53:13.662Z,66.83
2022-11-04T23:55:40.003Z,66.74
2022-11-04T23:58:06.349Z,66.94
